Time;durP1;ratioP1;P1;durP2;ratioP2;P2;SDS_P1;SDS_P2;PMS_P1;PMS_P2;Temp;Humidity;BMP_temperature;BMP_pressure;BME280_temperature;BME280_humidity;BME280_pressure;Samples;Min_cycle;Max_cycle;Signal;HPM_P1;HPM_P2
2024/01/03 00:00:29;;;;;;;2.27;1.97;;;;;;;1.58;100.00;-23859.88;5033799;28;20172;-66
2024/01/03 00:02:56;;;;;;;2.33;2.13;;;;;;;1.40;100.00;-23854.75;5033597;28;20175;-67
2024/01/03 00:05:24;;;;;;;2.30;1.97;;;;;;;1.57;100.00;-23859.59;5033916;28;20178;-66
2024/01/03 00:07:50;;;;;;;1.67;1.57;;;;;;;1.75;100.00;-23864.75;5033945;28;20316;-64
2024/01/03 00:10:47;;;;;;;2.07;1.97;;;;;;;1.95;100.00;-23870.31;5033308;28;20168;-67
2024/01/03 00:13:33;;;;;;;1.77;1.67;;;;;;;2.03;100.00;-23872.59;5032279;28;20290;-68
2024/01/03 00:15:58;;;;;;;2.47;2.23;;;;;;;2.05;100.00;-23873.16;5034783;28;20175;-67
2024/01/03 00:18:35;;;;;;;1.60;1.50;;;;;;;2.01;100.00;-23872.03;5033298;28;20176;-66
2024/01/03 00:21:07;;;;;;;2.43;2.23;;;;;;;1.99;100.00;-23871.31;5033126;28;20178;-67
2024/01/03 00:23:43;;;;;;;4.70;3.93;;;;;;;1.84;100.00;-23867.19;5033487;28;20657;-66
2024/01/03 00:26:11;;;;;;;1.70;1.47;;;;;;;1.57;100.00;-23859.47;5033374;28;20650;-64
2024/01/03 00:28:37;;;;;;;4.87;3.80;;;;;;;1.77;100.00;-23865.16;5032975;28;20254;-67
2024/01/03 00:31:03;;;;;;;1.90;1.80;;;;;;;1.70;100.00;-23863.31;5033077;28;20625;-66
2024/01/03 00:33:29;;;;;;;1.87;1.77;;;;;;;1.64;100.00;-23861.47;5032595;28;20231;-66
2024/01/03 00:35:56;;;;;;;2.20;2.10;;;;;;;1.63;100.00;-23861.31;5032688;28;20171;-67
2024/01/03 00:38:21;;;;;;;2.53;2.33;;;;;;;1.52;100.00;-23858.03;5032994;28;20243;-68
2024/01/03 00:40:47;;;;;;;2.10;2.00;;;;;;;1.54;100.00;-23858.59;5033033;28;20661;-68
2024/01/03 00:43:12;;;;;;;2.80;2.60;;;;;;;1.47;100.00;-23856.75;5032600;28;20512;-67
2024/01/03 00:45:37;;;;;;;3.03;2.83;;;;;;;1.54;100.00;-23858.75;5032874;28;20611;-66
2024/01/03 00:48:03;;;;;;;2.33;2.20;;;;;;;1.55;100.00;-23859.03;5032719;28;20202;-67
2024/01/03 00:50:28;;;;;;;1.50;1.40;;;;;;;1.61;100.00;-23860.59;5032626;28;20179;-64
2024/01/03 00:52:54;;;;;;;1.87;1.77;;;;;;;1.68;100.00;-23862.75;5032218;28;20552;-68
2024/01/03 00:55:19;;;;;;;3.73;2.70;;;;;;;1.74;100.00;-23864.47;5032587;28;20191;-64
2024/01/03 00:57:45;;;;;;;2.33;2.20;;;;;;;1.84;100.00;-23867.03;5032748;28;20174;-66
2024/01/03 01:00:11;;;;;;;2.47;2.27;;;;;;;1.58;100.00;-23859.88;5032545;28;20195;-64
2024/01/03 01:02:37;;;;;;;4.37;2.83;;;;;;;1.53;100.00;-23858.31;5032647;28;20172;-64
2024/01/03 01:05:02;;;;;;;1.90;1.80;;;;;;;1.79;100.00;-23865.75;5032498;28;20224;-68
2024/01/03 01:07:28;;;;;;;2.17;1.97;;;;;;;1.80;100.00;-23865.88;5032691;28;20175;-62
2024/01/03 01:09:53;;;;;;;2.23;2.03;;;;;;;1.55;100.00;-23858.88;5032711;28;20201;-67
2024/01/03 01:12:20;;;;;;;1.23;1.23;;;;;;;1.85;100.00;-23867.47;5032390;28;20260;-65
2024/01/03 01:14:46;;;;;;;2.23;2.07;;;;;;;1.49;100.00;-23857.16;5032258;28;20635;-63
2024/01/03 01:17:11;;;;;;;1.73;1.63;;;;;;;1.65;100.00;-23861.75;5032024;28;20178;-66
2024/01/03 01:19:37;;;;;;;2.20;2.00;;;;;;;1.63;100.00;-23861.31;5032678;28;20175;-67
2024/01/03 01:22:02;;;;;;;2.37;2.23;;;;;;;1.51;100.00;-23857.88;5032106;28;20692;-63
2024/01/03 01:24:28;;;;;;;5.37;3.13;;;;;;;1.33;100.00;-23852.88;5031949;28;20168;-66
2024/01/03 01:26:53;;;;;;;2.40;2.20;;;;;;;1.45;100.00;-23856.16;5031819;28;20178;-66
2024/01/03 01:29:18;;;;;;;2.77;2.57;;;;;;;1.19;100.00;-23848.88;5031686;28;20214;-67
2024/01/03 01:31:44;;;;;;;2.50;2.30;;;;;;;1.41;100.00;-23855.03;5031685;28;20234;-66
2024/01/03 01:34:10;;;;;;;2.20;2.10;;;;;;;1.17;100.00;-23848.16;5031787;28;20609;-64
2024/01/03 01:36:35;;;;;;;3.13;2.37;;;;;;;1.06;100.00;-23845.03;5032043;28;20171;-65
2024/01/03 01:39:01;;;;;;;2.63;2.43;;;;;;;1.40;100.00;-23854.75;5030919;28;20190;-64
2024/01/03 01:41:26;;;;;;;2.87;2.30;;;;;;;1.31;100.00;-23852.16;5040369;28;20191;-65
2024/01/03 01:43:53;;;;;;;2.40;2.20;;;;;;;1.33;100.00;-23852.75;5031716;28;20179;-64
2024/01/03 01:46:19;;;;;;;2.13;2.03;;;;;;;1.13;100.00;-23847.03;5031138;28;20175;-65
2024/01/03 01:48:46;;;;;;;3.30;2.57;;;;;;;1.03;100.00;-23844.16;5031395;28;20236;-64
2024/01/03 01:51:12;;;;;;;2.13;1.93;;;;;;;1.30;100.00;-23851.88;5031670;28;20289;-68
2024/01/03 01:53:38;;;;;;;2.20;1.63;;;;;;;1.02;100.00;-23843.88;5031527;28;20245;-64
2024/01/03 01:56:04;;;;;;;1.43;1.33;;;;;;;1.28;100.00;-23851.31;5031468;28;20614;-67
2024/01/03 01:58:30;;;;;;;2.40;2.20;;;;;;;1.32;100.00;-23852.59;5031669;28;20202;-66
2024/01/03 02:00:57;;;;;;;2.50;2.30;;;;;;;1.22;100.00;-23849.59;5029724;28;20655;-67
2024/01/03 02:03:23;;;;;;;1.63;1.53;;;;;;;1.36;100.00;-23853.44;5030021;28;20180;-67
2024/01/03 02:05:49;;;;;;;3.00;2.77;;;;;;;1.42;100.00;-23855.16;5031023;28;20174;-69
2024/01/03 02:08:16;;;;;;;1.97;1.87;;;;;;;1.18;100.00;-23848.44;5030972;28;20175;-63
2024/01/03 02:10:41;;;;;;;2.40;2.20;;;;;;;0.95;100.00;-23841.88;5030792;28;20171;-66
2024/01/03 02:13:07;;;;;;;1.80;1.70;;;;;;;1.36;100.00;-23853.59;5030594;28;20238;-70
2024/01/03 02:15:32;;;;;;;1.87;1.77;;;;;;;1.36;100.00;-23853.59;5030325;28;20176;-66
2024/01/03 02:17:59;;;;;;;2.87;2.57;;;;;;;1.28;100.00;-23851.31;5030940;28;20167;-64
2024/01/03 02:20:30;;;;;;;2.30;1.87;;;;;;;1.55;100.00;-23859.03;5030829;28;20649;-67
2024/01/03 02:22:55;;;;;;;2.87;2.07;;;;;;;1.31;100.00;-23852.16;5031457;28;20638;-68
2024/01/03 02:25:21;;;;;;;1.80;1.70;;;;;;;1.29;100.00;-23851.59;5030420;28;20329;-66
2024/01/03 02:27:46;;;;;;;1.70;1.60;;;;;;;1.40;100.00;-23854.59;5030772;28;20178;-67
2024/01/03 02:30:12;;;;;;;2.03;1.93;;;;;;;1.28;100.00;-23851.31;5030562;28;20263;-62
2024/01/03 02:32:37;;;;;;;1.60;1.50;;;;;;;1.53;100.00;-23858.31;5030590;28;20261;-65
2024/01/03 02:35:05;;;;;;;3.87;3.50;;;;;;;1.21;100.00;-23849.31;5030744;28;20316;-65
2024/01/03 02:37:30;;;;;;;2.60;2.40;;;;;;;1.29;100.00;-23851.75;5030613;28;20175;-66
2024/01/03 02:39:56;;;;;;;3.20;2.93;;;;;;;1.19;100.00;-23848.75;5030753;28;20182;-64
2024/01/03 02:42:21;;;;;;;1.67;1.57;;;;;;;1.73;100.00;-23864.16;5031152;28;20655;-66
2024/01/03 02:44:47;;;;;;;3.37;2.30;;;;;;;1.70;100.00;-23863.31;5030399;28;20175;-65
2024/01/03 02:47:12;;;;;;;5.33;3.03;;;;;;;1.74;100.00;-23864.31;5030978;28;20218;-66
2024/01/03 02:49:37;;;;;;;2.10;1.93;;;;;;;1.60;100.00;-23860.31;5030837;28;20183;-65
2024/01/03 02:52:03;;;;;;;2.50;2.33;;;;;;;1.28;100.00;-23851.31;5030421;28;20175;-65
2024/01/03 02:54:28;;;;;;;2.30;2.13;;;;;;;1.75;100.00;-23864.59;5030326;28;20259;-67
2024/01/03 02:56:54;;;;;;;6.17;2.90;;;;;;;1.74;100.00;-23864.31;5029966;28;20659;-64
2024/01/03 02:59:19;;;;;;;2.47;2.30;;;;;;;1.78;100.00;-23865.59;5030335;28;20179;-67
2024/01/03 03:01:45;;;;;;;2.20;2.07;;;;;;;1.50;100.00;-23857.47;5031241;28;20183;-65
2024/01/03 03:04:11;;;;;;;1.57;1.50;;;;;;;1.38;100.00;-23854.16;5030741;28;20196;-67
2024/01/03 03:06:36;;;;;;;3.13;2.37;;;;;;;1.70;100.00;-23863.31;5031092;28;20194;-66
2024/01/03 03:09:02;;;;;;;2.50;2.10;;;;;;;1.72;100.00;-23863.75;5030543;28;20211;-67
2024/01/03 03:11:27;;;;;;;1.77;1.60;;;;;;;1.62;100.00;-23860.88;5030754;28;20234;-64
2024/01/03 03:13:53;;;;;;;1.50;1.40;;;;;;;1.74;100.00;-23864.31;5030299;28;20199;-67
2024/01/03 03:16:19;;;;;;;3.43;2.33;;;;;;;1.47;100.00;-23856.75;5034484;28;20202;-66
2024/01/03 03:18:45;;;;;;;2.80;2.63;;;;;;;1.57;100.00;-23859.47;5034275;28;20262;-64
2024/01/03 03:21:10;;;;;;;2.00;1.90;;;;;;;1.76;100.00;-23864.88;5034428;28;20292;-67
2024/01/03 03:23:36;;;;;;;2.33;2.13;;;;;;;1.52;100.00;-23858.03;5034329;28;20176;-69
2024/01/03 03:26:03;;;;;;;1.50;1.40;;;;;;;1.77;100.00;-23865.16;5035312;28;20183;-68
2024/01/03 03:28:28;;;;;;;2.20;1.93;;;;;;;1.75;100.00;-23864.75;5033815;28;20212;-67
2024/01/03 03:30:54;;;;;;;2.87;2.03;;;;;;;1.76;100.00;-23865.03;5034632;28;20164;-69
2024/01/03 03:33:19;;;;;;;1.53;1.43;;;;;;;1.62;100.00;-23860.88;5033772;28;20313;-65
2024/01/03 03:35:44;;;;;;;1.83;1.73;;;;;;;1.81;100.00;-23866.16;5036679;28;20631;-67
2024/01/03 03:38:10;;;;;;;2.50;2.30;;;;;;;1.52;100.00;-23858.16;5036848;28;20639;-66
2024/01/03 03:40:35;;;;;;;1.60;1.50;;;;;;;1.79;100.00;-23865.75;5040149;28;20186;-65
2024/01/03 03:43:00;;;;;;;1.80;1.70;;;;;;;1.57;100.00;-23859.47;5040426;28;20187;-68
2024/01/03 03:45:26;;;;;;;3.13;2.90;;;;;;;1.58;100.00;-23859.88;5041998;28;20639;-64
2024/01/03 03:47:51;;;;;;;1.97;1.87;;;;;;;1.80;100.00;-23866.03;5037390;28;20184;-68
2024/01/03 03:50:17;;;;;;;1.50;1.40;;;;;;;1.88;100.00;-23868.31;5044210;28;20558;-63
2024/01/03 03:52:42;;;;;;;1.97;1.87;;;;;;;1.91;100.00;-23869.16;5036703;28;20290;-65
2024/01/03 03:55:08;;;;;;;1.97;1.87;;;;;;;1.61;100.00;-23860.75;5038031;28;20187;-66
2024/01/03 03:57:34;;;;;;;2.90;2.57;;;;;;;1.77;100.00;-23865.31;5032727;28;20179;-66
2024/01/03 04:00:01;;;;;;;1.50;1.40;;;;;;;1.62;100.00;-23860.88;5038547;28;20190;-63
2024/01/03 04:02:26;;;;;;;3.03;2.40;;;;;;;1.75;100.00;-23864.75;5041698;28;20183;-65
2024/01/03 04:04:52;;;;;;;2.17;2.07;;;;;;;1.81;100.00;-23866.16;5033075;28;20618;-67
2024/01/03 04:07:17;;;;;;;1.03;1.03;;;;;;;1.53;100.00;-23858.44;5040531;28;20275;-68
2024/01/03 04:09:44;;;;;;;4.60;3.23;;;;;;;1.69;100.00;-23862.88;5031679;28;20206;-64
2024/01/03 04:12:10;;;;;;;2.83;2.30;;;;;;;1.53;100.00;-23858.31;5031841;28;20678;-67
2024/01/03 04:14:37;;;;;;;1.97;1.87;;;;;;;1.54;100.00;-23858.75;5032906;28;20637;-62
2024/01/03 04:17:03;;;;;;;1.30;1.30;;;;;;;1.83;100.00;-23866.75;5036182;28;20560;-65
2024/01/03 04:19:30;;;;;;;1.67;1.57;;;;;;;1.63;100.00;-23861.31;5041533;28;20197;-63
2024/01/03 04:21:58;;;;;;;2.13;2.03;;;;;;;1.83;100.00;-23866.75;5041270;28;20176;-68
2024/01/03 04:24:24;;;;;;;2.00;1.90;;;;;;;1.76;100.00;-23865.03;5039762;28;20183;-63
2024/01/03 04:26:53;;;;;;;1.53;1.43;;;;;;;1.76;100.00;-23865.03;5032300;28;20178;-64
2024/01/03 04:29:19;;;;;;;2.47;2.27;;;;;;;1.65;100.00;-23861.88;5034137;28;20179;-67
2024/01/03 04:31:45;;;;;;;2.43;2.23;;;;;;;1.89;100.00;-23868.59;5032278;28;20246;-67
2024/01/03 04:34:10;;;;;;;1.83;1.73;;;;;;;1.95;100.00;-23870.16;5039844;28;20686;-68
2024/01/03 04:36:35;;;;;;;2.43;2.23;;;;;;;1.94;100.00;-23870.03;5041916;28;20179;-66
2024/01/03 04:39:01;;;;;;;2.03;1.93;;;;;;;1.56;100.00;-23859.16;5030722;28;20210;-69
2024/01/03 04:41:26;;;;;;;2.00;1.90;;;;;;;1.52;100.00;-23858.16;5032650;28;20206;-68
2024/01/03 04:43:52;;;;;;;3.07;2.23;;;;;;;1.77;100.00;-23865.16;5033081;28;20278;-65
2024/01/03 04:46:17;;;;;;;3.33;1.87;;;;;;;1.82;100.00;-23866.47;5033081;28;20172;-66
2024/01/03 04:48:43;;;;;;;2.07;1.97;;;;;;;1.75;100.00;-23864.59;5032593;28;20172;-66
2024/01/03 04:51:09;;;;;;;2.27;1.87;;;;;;;1.56;100.00;-23859.16;5031793;28;20233;-68
2024/01/03 04:53:34;;;;;;;1.93;1.83;;;;;;;1.87;100.00;-23867.88;5032359;28;20191;-65
2024/01/03 04:56:00;;;;;;;3.97;2.00;;;;;;;1.55;100.00;-23858.88;5032347;28;20185;-66
2024/01/03 04:58:25;;;;;;;4.33;2.57;;;;;;;1.67;100.00;-23862.47;5032170;28;20558;-63
2024/01/03 05:00:50;;;;;;;2.17;2.07;;;;;;;1.92;100.00;-23869.31;5032453;28;20278;-66
2024/01/03 05:03:16;;;;;;;2.13;2.00;;;;;;;1.75;100.00;-23864.75;5032211;28;20183;-65
2024/01/03 05:05:42;;;;;;;1.77;1.67;;;;;;;1.96;100.00;-23870.47;5031436;28;20195;-67
2024/01/03 05:08:07;;;;;;;1.57;1.47;;;;;;;2.02;100.00;-23872.16;5040999;28;20203;-67
2024/01/03 05:10:33;;;;;;;1.73;1.63;;;;;;;1.84;100.00;-23867.19;5031828;28;20490;-66
2024/01/03 05:12:58;;;;;;;1.80;1.70;;;;;;;1.95;100.00;-23870.16;5037838;28;20219;-68
2024/01/03 05:15:23;;;;;;;1.50;1.40;;;;;;;1.76;100.00;-23864.88;5033777;28;20258;-63
2024/01/03 05:17:51;;;;;;;1.37;1.37;;;;;;;1.55;100.00;-23859.03;5030382;28;20237;-64
2024/01/03 05:20:16;;;;;;;1.70;1.60;;;;;;;1.72;100.00;-23863.88;5040390;28;20206;-66
2024/01/03 05:22:42;;;;;;;6.37;2.03;;;;;;;1.96;100.00;-23870.47;5040123;28;20641;-66
2024/01/03 05:25:08;;;;;;;1.20;1.20;;;;;;;1.71;100.00;-23863.59;5031682;28;20198;-65
2024/01/03 05:27:33;;;;;;;2.13;1.70;;;;;;;1.88;100.00;-23868.31;5032165;28;20226;-66
2024/01/03 05:29:59;;;;;;;1.73;1.63;;;;;;;2.35;100.00;-23881.59;5031346;28;20283;-68
2024/01/03 05:32:24;;;;;;;1.57;1.47;;;;;;;2.12;100.00;-23875.16;5030597;28;20237;-67
2024/01/03 05:34:50;;;;;;;1.40;1.33;;;;;;;2.08;100.00;-23873.88;5031617;28;20171;-65
2024/01/03 05:37:15;;;;;;;1.87;1.80;;;;;;;1.83;100.00;-23866.75;5029504;28;20229;-64
2024/01/03 05:39:40;;;;;;;2.27;2.07;;;;;;;1.80;100.00;-23866.03;5031181;28;20187;-67
2024/01/03 05:42:07;;;;;;;1.87;1.73;;;;;;;1.60;100.00;-23860.47;5031105;28;20214;-67
2024/01/03 05:44:32;;;;;;;4.70;2.27;;;;;;;1.72;100.00;-23863.88;5031415;28;20199;-63
2024/01/03 05:46:59;;;;;;;2.60;2.40;;;;;;;1.92;100.00;-23869.31;5031228;28;20314;-65
2024/01/03 05:49:25;;;;;;;3.27;2.57;;;;;;;1.72;100.00;-23863.75;5031204;28;20170;-65
2024/01/03 05:51:50;;;;;;;1.47;1.43;;;;;;;1.87;100.00;-23867.88;5030697;28;20168;-67
2024/01/03 05:54:16;;;;;;;4.93;3.17;;;;;;;1.67;100.00;-23862.47;5030567;28;20296;-64
2024/01/03 05:56:41;;;;;;;2.87;2.00;;;;;;;1.80;100.00;-23865.88;5031443;28;20260;-70
2024/01/03 05:59:07;;;;;;;2.23;2.07;;;;;;;2.07;100.00;-23873.59;5030818;28;20571;-66
2024/01/03 06:01:32;;;;;;;2.70;2.43;;;;;;;2.28;100.00;-23879.59;5030871;28;20160;-66
2024/01/03 06:03:58;;;;;;;2.30;2.10;;;;;;;2.41;100.00;-23883.16;5031281;28;20167;-67
2024/01/03 06:06:23;;;;;;;2.80;2.43;;;;;;;2.39;100.00;-23882.59;5031069;28;20254;-66
2024/01/03 06:08:48;;;;;;;2.13;1.87;;;;;;;2.45;100.00;-23884.31;5030069;28;20180;-65
2024/01/03 06:11:14;;;;;;;4.43;2.03;;;;;;;2.32;100.00;-23880.59;5028968;28;20803;-65
2024/01/03 06:13:39;;;;;;;3.30;3.00;;;;;;;2.14;100.00;-23875.75;5028695;28;20191;-66
2024/01/03 06:16:05;;;;;;;2.03;1.93;;;;;;;2.28;100.00;-23879.59;5028637;28;20176;-65
2024/01/03 06:18:31;;;;;;;1.80;1.70;;;;;;;2.34;100.00;-23881.31;5027977;28;20187;-68
2024/01/03 06:20:56;;;;;;;2.00;1.90;;;;;;;2.20;100.00;-23877.31;5030451;28;20245;-65
2024/01/03 06:23:21;;;;;;;1.83;1.73;;;;;;;2.52;100.00;-23886.44;5030438;28;20198;-64
2024/01/03 06:25:47;;;;;;;3.83;2.17;;;;;;;2.45;100.00;-23884.44;5030835;28;20202;-68
2024/01/03 06:28:12;;;;;;;2.37;2.20;;;;;;;2.29;100.00;-23879.88;5030792;28;20163;-65
2024/01/03 06:30:38;;;;;;;2.40;2.20;;;;;;;2.49;100.00;-23885.44;5031226;28;20599;-66
2024/01/03 06:33:03;;;;;;;2.47;2.07;;;;;;;2.28;100.00;-23879.59;5030692;28;20230;-66
2024/01/03 06:35:30;;;;;;;2.07;1.97;;;;;;;2.37;100.00;-23882.16;5031961;28;20266;-67
2024/01/03 06:37:56;;;;;;;1.30;1.30;;;;;;;2.61;100.00;-23889.03;5030382;28;20237;-65
2024/01/03 06:40:21;;;;;;;2.53;2.27;;;;;;;2.65;100.00;-23890.00;5030328;28;20175;-64
2024/01/03 06:42:47;;;;;;;1.60;1.50;;;;;;;2.32;100.00;-23880.75;5030662;28;20258;-67
2024/01/03 06:45:12;;;;;;;2.03;1.93;;;;;;;2.27;100.00;-23879.31;5030427;28;20175;-67
2024/01/03 06:47:37;;;;;;;1.63;1.53;;;;;;;2.53;100.00;-23886.75;5030702;28;20175;-68
2024/01/03 06:50:03;;;;;;;2.67;2.47;;;;;;;2.49;100.00;-23885.59;5033963;28;20175;-67
2024/01/03 06:52:28;;;;;;;2.43;2.23;;;;;;;2.79;100.00;-23893.88;5034380;28;20202;-67
2024/01/03 06:54:55;;;;;;;1.80;1.70;;;;;;;2.85;100.00;-23895.59;5033725;28;20574;-65
2024/01/03 06:57:20;;;;;;;1.83;1.63;;;;;;;2.91;100.00;-23897.44;5034175;28;20175;-66
2024/01/03 06:59:46;;;;;;;3.43;2.90;;;;;;;2.89;100.00;-23896.88;5034341;28;20171;-67
2024/01/03 07:02:12;;;;;;;3.30;2.27;;;;;;;2.96;100.00;-23898.72;5034356;28;20183;-69
2024/01/03 07:04:37;;;;;;;1.77;1.67;;;;;;;2.88;100.00;-23896.59;5033665;28;20176;-66
2024/01/03 07:07:03;;;;;;;1.77;1.67;;;;;;;3.02;100.00;-23900.56;5033745;28;20168;-68
2024/01/03 07:09:28;;;;;;;1.97;1.87;;;;;;;3.37;100.00;-23910.41;5033895;28;20682;-65
2024/01/03 07:11:53;;;;;;;2.67;2.43;;;;;;;3.16;100.00;-23904.44;5033991;28;20179;-68
2024/01/03 07:14:19;;;;;;;2.47;1.87;;;;;;;3.17;100.00;-23904.72;5033995;28;20262;-66
2024/01/03 07:16:44;;;;;;;2.23;2.07;;;;;;;3.48;100.00;-23913.56;5034115;28;20353;-67
2024/01/03 07:19:10;;;;;;;1.87;1.60;;;;;;;3.60;100.00;-23916.69;5034009;28;20206;-68
2024/01/03 07:21:36;;;;;;;1.70;1.60;;;;;;;3.54;100.00;-23915.13;5033885;28;20163;-68
2024/01/03 07:24:01;;;;;;;2.47;2.27;;;;;;;3.77;100.00;-23921.53;5033508;28;20617;-67
2024/01/03 07:26:27;;;;;;;2.17;1.97;;;;;;;3.82;100.00;-23922.97;5034184;28;20218;-64
2024/01/03 07:28:52;;;;;;;2.10;2.00;;;;;;;3.64;100.00;-23917.97;5033790;28;20250;-68
2024/01/03 07:31:18;;;;;;;1.90;1.80;;;;;;;3.63;100.00;-23917.69;5033583;28;20177;-66
2024/01/03 07:33:43;;;;;;;2.23;2.03;;;;;;;3.47;100.00;-23913.13;5033493;28;20211;-63
2024/01/03 07:36:08;;;;;;;1.77;1.67;;;;;;;3.59;100.00;-23916.53;5033859;28;20266;-65
2024/01/03 07:38:34;;;;;;;1.97;1.87;;;;;;;3.18;100.00;-23905.00;5035591;28;20167;-65
2024/01/03 07:41:00;;;;;;;1.33;1.27;;;;;;;2.78;100.00;-23893.72;5033796;28;20231;-66
2024/01/03 07:43:28;;;;;;;2.17;1.93;;;;;;;2.96;100.00;-23898.88;5033884;28;20562;-65
2024/01/03 07:45:54;;;;;;;3.23;2.47;;;;;;;3.01;100.00;-23900.28;5033913;28;20168;-68
2024/01/03 07:48:20;;;;;;;5.03;3.60;;;;;;;2.84;100.00;-23895.28;5033872;28;20218;-67
2024/01/03 07:50:45;;;;;;;5.70;2.40;;;;;;;3.18;100.00;-23905.00;5034106;28;20199;-67
2024/01/03 07:53:11;;;;;;;2.03;1.93;;;;;;;3.40;100.00;-23911.28;5033672;28;20636;-67
2024/01/03 07:55:36;;;;;;;1.80;1.70;;;;;;;3.19;100.00;-23905.13;5032282;28;20267;-66
2024/01/03 07:58:02;;;;;;;8.47;2.93;;;;;;;2.88;100.00;-23896.59;5033707;28;20254;-67
2024/01/03 08:00:30;;;;;;;2.50;2.30;;;;;;;2.75;100.00;-23892.72;5032932;28;20175;-67
2024/01/03 08:02:55;;;;;;;2.40;2.20;;;;;;;2.86;100.00;-23895.88;5033569;28;20178;-66
2024/01/03 08:05:22;;;;;;;5.07;2.83;;;;;;;3.15;100.00;-23904.13;5033440;28;20180;-69
2024/01/03 08:07:47;;;;;;;3.43;1.90;;;;;;;3.29;100.00;-23908.13;5033635;28;20262;-66
2024/01/03 08:10:13;;;;;;;2.47;2.30;;;;;;;3.23;100.00;-23906.44;5032390;28;20334;-65
2024/01/03 08:12:38;;;;;;;2.93;2.73;;;;;;;3.65;100.00;-23918.25;5033464;28;20568;-66
2024/01/03 08:15:04;;;;;;;1.90;1.80;;;;;;;3.69;100.00;-23919.41;5033607;28;20261;-67
2024/01/03 08:17:29;;;;;;;3.07;2.77;;;;;;;3.82;100.00;-23922.97;5033315;28;20179;-65
2024/01/03 08:19:55;;;;;;;3.93;2.23;;;;;;;3.95;100.00;-23926.81;5032255;28;20179;-65
2024/01/03 08:22:20;;;;;;;2.43;2.23;;;;;;;3.84;100.00;-23923.66;5033312;28;20183;-69
2024/01/03 08:24:45;;;;;;;2.13;2.00;;;;;;;4.04;100.00;-23929.22;5033667;28;20180;-65
2024/01/03 08:27:11;;;;;;;2.10;2.00;;;;;;;4.45;100.00;-23940.75;5033347;28;20246;-66
2024/01/03 08:29:37;;;;;;;2.77;2.57;;;;;;;4.68;100.00;-23947.31;5033086;28;20176;-65
2024/01/03 08:32:03;;;;;;;4.23;2.57;;;;;;;4.71;100.00;-23948.16;5033037;28;20267;-66
2024/01/03 08:34:29;;;;;;;2.00;1.80;;;;;;;4.81;100.00;-23950.84;5033167;28;20206;-66
2024/01/03 08:36:54;;;;;;;2.83;2.60;;;;;;;4.74;100.00;-23949.00;5032553;28;20599;-67
2024/01/03 08:39:22;;;;;;;3.70;2.97;;;;;;;5.05;100.00;-23957.69;5032988;28;20283;-65
2024/01/03 08:41:57;;;;;;;2.27;2.07;;;;;;;5.16;100.00;-23960.81;5032593;28;20202;-67
2024/01/03 08:44:23;;;;;;;5.83;2.87;;;;;;;5.23;100.00;-23962.66;5032949;28;20175;-70
2024/01/03 08:46:48;;;;;;;3.17;2.87;;;;;;;5.16;100.00;-23960.69;5032683;28;20201;-67
2024/01/03 08:49:14;;;;;;;3.70;2.73;;;;;;;5.26;100.00;-23963.66;5032377;28;20175;-67
2024/01/03 08:51:43;;;;;;;3.37;3.07;;;;;;;5.08;100.00;-23958.53;5032605;28;20558;-65
2024/01/03 08:54:08;;;;;;;2.47;2.33;;;;;;;5.13;100.00;-23959.97;5032344;28;20375;-69
2024/01/03 08:56:33;;;;;;;4.00;3.57;;;;;;;5.32;100.00;-23965.38;5032316;28;20270;-69
2024/01/03 08:58:59;;;;;;;5.20;3.50;;;;;;;5.23;100.00;-23962.81;5032538;28;20180;-63
2024/01/03 09:01:27;;;;;;;5.73;3.60;;;;;;;5.42;100.00;-23967.94;5032464;28;20639;-65
2024/01/03 09:03:53;;;;;;;3.37;3.07;;;;;;;5.46;100.00;-23969.06;5032376;28;20179;-68
2024/01/03 09:06:21;;;;;;;2.60;2.40;;;;;;;5.44;100.00;-23968.50;5032577;28;20172;-67
2024/01/03 09:08:54;;;;;;;3.27;2.97;;;;;;;5.35;100.00;-23966.09;5032694;28;20231;-66
2024/01/03 09:11:23;;;;;;;4.13;3.77;;;;;;;5.17;100.00;-23961.09;5031083;28;20171;-65
2024/01/03 09:13:49;;;;;;;7.40;3.47;;;;;;;5.30;100.00;-23964.81;5031680;28;20257;-64
2024/01/03 09:16:18;;;;;;;5.33;3.10;;;;;;;5.23;100.00;-23962.81;5032176;28;20171;-69
2024/01/03 09:18:45;;;;;;;5.27;3.00;;;;;;;5.04;100.00;-23957.41;5030839;28;20649;-65
2024/01/03 09:21:10;;;;;;;2.03;1.93;;;;;;;5.31;100.00;-23965.09;5032152;28;20175;-69
2024/01/03 09:23:36;;;;;;;4.07;2.63;;;;;;;5.22;100.00;-23962.53;5031968;28;20617;-67
2024/01/03 09:26:06;;;;;;;2.60;2.40;;;;;;;5.14;100.00;-23960.09;5030828;28;20186;-64
2024/01/03 09:28:31;;;;;;;3.97;3.07;;;;;;;5.26;100.00;-23963.66;5031832;28;20278;-64
2024/01/03 09:30:57;;;;;;;2.87;2.67;;;;;;;5.25;100.00;-23963.38;5031552;28;20279;-67
2024/01/03 09:33:23;;;;;;;3.67;3.30;;;;;;;5.21;100.00;-23962.25;5032245;28;20665;-65
2024/01/03 09:35:49;;;;;;;4.17;3.77;;;;;;;5.26;100.00;-23963.66;5031560;28;20230;-67
2024/01/03 09:38:14;;;;;;;2.87;2.67;;;;;;;4.95;100.00;-23954.84;5032148;28;20175;-66
2024/01/03 09:40:43;;;;;;;3.57;3.13;;;;;;;5.01;100.00;-23956.56;5031638;28;20229;-64
2024/01/03 09:43:10;;;;;;;10.90;4.50;;;;;;;4.94;100.00;-23954.56;5032178;28;20171;-65
2024/01/03 09:45:36;;;;;;;2.00;1.87;;;;;;;5.10;100.00;-23958.97;5031438;28;20179;-65
2024/01/03 09:48:02;;;;;;;3.50;3.20;;;;;;;5.04;100.00;-23957.25;5031886;28;20167;-67
2024/01/03 09:50:27;;;;;;;2.80;2.60;;;;;;;5.19;100.00;-23961.66;5031874;28;20513;-70
2024/01/03 09:52:56;;;;;;;3.67;2.97;;;;;;;5.01;100.00;-23956.41;5031146;28;20194;-64
2024/01/03 09:55:21;;;;;;;2.13;2.03;;;;;;;5.20;100.00;-23961.81;5031476;28;20622;-65
2024/01/03 09:57:51;;;;;;;2.93;2.70;;;;;;;4.89;100.00;-23953.13;5031502;28;20180;-66
2024/01/03 10:00:17;;;;;;;2.80;2.60;;;;;;;5.13;100.00;-23959.97;5030340;28;20179;-70
2024/01/03 10:02:47;;;;;;;1.87;1.77;;;;;;;4.95;100.00;-23954.84;5031752;28;20698;-64
2024/01/03 10:05:23;;;;;;;2.60;2.40;;;;;;;5.23;100.00;-23962.81;5031517;28;20160;-66
2024/01/03 10:07:48;;;;;;;2.50;1.87;;;;;;;4.87;100.00;-23952.72;5031365;28;20565;-66
2024/01/03 10:10:34;;;;;;;1.73;1.63;;;;;;;5.21;100.00;-23962.09;5031488;28;20171;-63
2024/01/03 10:13:27;;;;;;;2.50;2.30;;;;;;;5.25;100.00;-23963.38;5031248;28;20305;-65
2024/01/03 10:15:53;;;;;;;1.80;1.70;;;;;;;5.07;100.00;-23958.13;5029187;28;20568;-63
2024/01/03 10:18:18;;;;;;;3.07;2.23;;;;;;;5.27;100.00;-23963.94;5031327;28;20175;-64
2024/01/03 10:20:44;;;;;;;2.70;2.50;;;;;;;5.24;100.00;-23963.09;5031440;28;20171;-65
2024/01/03 10:23:15;;;;;;;2.10;1.90;;;;;;;5.16;100.00;-23960.69;5029321;28;20671;-65
2024/01/03 10:25:43;;;;;;;2.30;1.77;;;;;;;5.28;100.00;-23964.22;5031112;28;20650;-66
2024/01/03 10:28:10;;;;;;;2.10;2.00;;;;;;;5.58;100.00;-23972.47;5031099;28;20172;-64
2024/01/03 10:30:36;;;;;;;1.90;1.73;;;;;;;5.47;100.00;-23969.50;5030760;28;20175;-67
2024/01/03 10:33:04;;;;;;;3.03;2.10;;;;;;;5.61;100.00;-23973.34;5030385;28;20230;-64
2024/01/03 10:35:33;;;;;;;2.17;1.97;;;;;;;5.63;100.00;-23974.03;5030262;28;20187;-65
2024/01/03 10:38:00;;;;;;;2.67;2.27;;;;;;;5.40;100.00;-23967.38;5030752;28;20155;-65
2024/01/03 10:40:31;;;;;;;1.77;1.67;;;;;;;5.15;100.00;-23960.53;5031062;28;20171;-69
2024/01/03 10:42:57;;;;;;;4.07;1.63;;;;;;;5.23;100.00;-23962.81;5030942;28;20163;-65
2024/01/03 10:45:23;;;;;;;3.30;2.67;;;;;;;5.43;100.00;-23968.34;5030475;28;20217;-68
2024/01/03 10:47:49;;;;;;;2.00;1.87;;;;;;;5.14;100.00;-23960.25;5030574;28;20174;-67
2024/01/03 10:50:15;;;;;;;2.87;2.00;;;;;;;5.44;100.00;-23968.50;5030381;28;20175;-65
2024/01/03 10:52:42;;;;;;;2.50;2.30;;;;;;;5.41;100.00;-23967.66;5030715;28;20198;-67
2024/01/03 10:55:17;;;;;;;2.30;2.10;;;;;;;5.19;100.00;-23961.66;5029324;28;20171;-66
2024/01/03 10:57:54;;;;;;;8.20;2.83;;;;;;;5.42;100.00;-23967.94;5028884;28;20162;-65
2024/01/03 11:00:30;;;;;;;1.80;1.70;;;;;;;5.36;100.00;-23966.22;5028758;28;20171;-66
2024/01/03 11:03:12;;;;;;;4.37;3.50;;;;;;;5.11;100.00;-23959.25;5028530;28;20688;-65
2024/01/03 11:06:08;;;;;;;3.23;2.17;;;;;;;5.04;100.00;-23957.41;5028823;28;20639;-63
2024/01/03 11:08:48;;;;;;;2.87;2.13;;;;;;;5.13;100.00;-23959.97;5029241;28;20185;-65
2024/01/03 11:11:37;;;;;;;3.97;3.47;;;;;;;4.59;100.00;-23944.59;5030653;28;20170;-64
2024/01/03 11:14:18;;;;;;;3.77;3.43;;;;;;;4.56;100.00;-23943.88;5030755;28;20198;-66
2024/01/03 11:16:44;;;;;;;4.93;3.00;;;;;;;4.73;100.00;-23948.59;5030815;28;20230;-68
2024/01/03 11:19:10;;;;;;;3.37;3.07;;;;;;;4.78;100.00;-23950.00;5030533;28;20620;-64
2024/01/03 11:21:37;;;;;;;3.20;2.80;;;;;;;4.98;100.00;-23955.69;5030782;28;20262;-67